• Join FlightAware (Why Join?)
  • Login
  • US Flag 
09:28AM EDT


 

Airport Tracker/Info


-or-


 

Live Flight TrackerFlight Track Log ✈ EJM826 ✈ 31-Oct-2013 ✈ KSAT - KTEB

Flight Track Log - Related Links

Times and Time Zones

All times are in EDT time to prevent confusion due to time zone crossing. See the EJM826 flight status page for this flight to view local times or setup timezone preferences in your user account.

Time Position Orientation Groundspeed Altitude Reporting Facility
EDT Latitude Longitude Course Direction KTS MPH feet Rate Location/Type
02:25PM 29.5700 -98.5206 312° West 163 188 3,500  Level Houston Center
02:26PM 29.5883 -98.5264 345° North 173 199 4,500 2,580 Climbing Houston Center
02:26PM 29.6144 -98.5033 38° Northeast 236 272 5,900 2,280 Climbing Houston Center
02:27PM 29.6214 -98.4736 75° East 234 269 6,900 2,280 Climbing Houston Center
02:28PM 29.6278 -98.3747 86° East 288 331 9,400 2,220 Climbing Houston Center
02:29PM 29.6331 -98.2625 87° East 324 373 11,600 1,920 Climbing Houston Center
02:30PM 29.6383 -98.1517 87° East 345 397 13,400 1,740 Climbing Houston Center
02:31PM 29.6439 -98.0269 87° East 361 415 15,300 1,680 Climbing Houston Center
02:32PM 29.6500 -97.9081 87° East 372 428 16,900 1,260 Climbing Houston Center
02:33PM 29.6550 -97.7958 87° East 386 444 18,000 1,320 Climbing Houston Center
02:34PM 29.6550 -97.6683 90° East 398 458 19,700 1,740 Climbing Houston Center
02:35PM 29.6564 -97.5192 89° East 391 450 21,700 1,500 Climbing Houston Center
02:36PM 29.6567 -97.3928 90° East 394 453 22,900 1,020 Climbing Houston Center
02:37PM 29.6581 -97.2617 89° East 406 467 23,900 1,140 Climbing Houston Center
02:38PM 29.6592 -97.1256 89° East 420 483 25,300 1,200 Climbing Houston Center
02:39PM 29.6606 -96.9906 89° East 420 483 26,400 1,080 Climbing Houston Center
02:40PM 29.6611 -96.8536 90° East 424 488 27,600 840 Climbing Houston Center
02:41PM 29.6614 -96.7164 90° East 425 489 28,200 540 Climbing Houston Center
02:42PM 29.6622 -96.5744 90° East 435 501 28,800 660 Climbing Houston Center
02:43PM 29.6617 -96.3994 90° East 452 520 29,600 720 Climbing Houston Center
02:44PM 29.6839 -96.2542 80° East 463 533 30,400 720 Climbing Houston Center
02:45PM 29.7258 -96.1111 71° East 471 542 31,100 720 Climbing Houston Center
02:46PM 29.7886 -95.9800 61° Northeast 478 550 31,900 780 Climbing Houston Center
02:47PM 29.8536 -95.8436 61° Northeast 482 555 32,800 960 Climbing Houston Center
02:48PM 29.9186 -95.7086 61° Northeast 480 552 34,000 960 Climbing Houston Center
02:49PM 29.9839 -95.5750 61° Northeast 477 549 34,900 1,080 Climbing Houston Center
02:50PM 30.0608 -95.4122 61° Northeast 477 549 36,300 780 Climbing Houston Center
02:51PM 30.1253 -95.2781 61° Northeast 477 549 36,600 660 Climbing Houston Center
02:52PM 30.1903 -95.1397 61° Northeast 485 558 37,700 840 Climbing Houston Center
02:53PM 30.2539 -95.0033 62° Northeast 483 556 38,400 780 Climbing Houston Center
02:55PM 30.3181 -94.8678 61° Northeast 480 552 39,400 900 Climbing Houston Center
02:56PM 30.3814 -94.7311 62° Northeast 482 555 40,300 720 Climbing Houston Center
02:57PM 30.4500 -94.5828 62° Northeast 480 552 41,000 300 Climbing Houston Center
02:58PM 30.5139 -94.4439 62° Northeast 483 556 41,000  Level Houston Center
02:59PM 30.5794 -94.3017 62° Northeast 494 568 41,000  Level Houston Center
03:00PM 30.6478 -94.1536 62° Northeast 509 586 41,000  Level Houston Center
03:01PM 30.7314 -93.9733 62° Northeast 522 601 41,000  Level Houston Center
03:02PM 30.8008 -93.8206 62° Northeast 528 608 41,000  Level Houston Center
03:03PM 30.8700 -93.6683 62° Northeast 529 609 41,000  Level Houston Center
03:04PM 30.9392 -93.5164 62° Northeast 527 606 41,000  Level Houston Center
03:05PM 31.0086 -93.3617 62° Northeast 534 615 41,000 -60 Level Houston Center
03:06PM 31.0769 -93.2081 63° Northeast 532 612 40,900  Descending Houston Center
03:07PM 31.1447 -93.0550 63° Northeast 531 611 41,000  Climbing Houston Center
03:08PM 31.2264 -92.8736 62° Northeast 526 605 41,000  Level Houston Center
03:09PM 31.2931 -92.7242 62° Northeast 521 600 41,000  Level Houston Center
03:10PM 31.3592 -92.5703 63° Northeast 527 606 41,000 -60 Level Houston Center
03:11PM 31.4267 -92.4194 62° Northeast 525 604 40,900  Descending Houston Center
03:12PM 31.4931 -92.2650 63° Northeast 530 610 41,000  Climbing Houston Center
03:13PM 31.5603 -92.1131 63° Northeast 525 604 40,900  Descending Houston Center
03:14PM 31.6297 -91.9519 63° Northeast 529 609 41,000  Climbing Houston Center
03:15PM 31.6967 -91.7986 63° Northeast 528 608 41,000  Level Houston Center
03:16PM 31.7767 -91.6136 63° Northeast 530 610 41,000  Level Houston Center
03:17PM 31.8428 -91.4589 63° Northeast 529 609 41,000  Level Houston Center
03:18PM 31.9083 -91.3047 63° Northeast 529 609 41,000  Level Houston Center
03:19PM 31.9742 -91.1483 64° Northeast 534 615 41,000  Level Houston Center
03:20PM 32.0400 -90.9947 63° Northeast 527 606 41,000  Level Houston Center
03:21PM 32.1064 -90.8389 63° Northeast 532 612 41,000  Level Houston Center
03:22PM 32.1728 -90.6781 64° Northeast 528 608 41,000  Level Houston Center
03:23PM 32.2503 -90.4908 64° Northeast 528 608 41,000  Level Houston Center
03:25PM 32.3156 -90.3344 64° Northeast 530 610 41,000  Level Houston Center
03:26PM 32.3792 -90.1794 64° Northeast 526 605 41,000  Level Houston Center
03:27PM 32.4492 -90.0103 64° Northeast 524 603 41,000  Level Houston Center
03:28PM 32.5136 -89.8547 64° Northeast 525 604 41,000  Level Houston Center
03:29PM 32.5886 -89.6644 65° Northeast 524 603 41,000  Level Memphis Center
03:30PM 32.6522 -89.5061 64° Northeast 524 603 41,000  Level Memphis Center
03:31PM 32.7158 -89.3497 64° Northeast 524 603 41,000  Level Memphis Center
03:33PM 32.8444 -89.0369 64° Northeast 524 603 41,000 120 Level Memphis Center
03:34PM 32.9053 -88.8825 65° Northeast 524 603 41,400 660 Climbing Memphis Center
03:35PM 32.9661 -88.7306 64° Northeast 519 597 42,400 480 Climbing Memphis Center
03:37PM 33.0906 -88.4075 65° Northeast 497 572 43,000 180 Climbing Atlanta Center
03:38PM 33.1525 -88.2517 65° Northeast 502 578 43,000  Level Atlanta Center
03:39PM 33.2119 -88.0958 65° Northeast 507 583 43,000  Level Atlanta Center
03:40PM 33.2733 -87.9419 64° Northeast 507 583 43,000  Level Atlanta Center
03:41PM 33.3322 -87.7856 66° East 512 589 43,000  Level Atlanta Center
03:42PM 33.3914 -87.6289 66° East 512 589 43,000  Level Atlanta Center
03:43PM 33.4522 -87.4722 65° Northeast 512 589 43,000  Level Atlanta Center
03:44PM 33.5108 -87.3125 66° East 512 589 43,000  Level Atlanta Center
03:45PM 33.5692 -87.1553 66° East 512 589 43,000  Level Atlanta Center
03:46PM 33.6381 -86.9806 65° Northeast 521 600 43,000  Level Atlanta Center
03:47PM 33.7167 -86.8383 56° Northeast 515 593 43,000  Level Atlanta Center
03:48PM 33.8111 -86.7139 48° Northeast 505 581 43,000  Level Atlanta Center
03:49PM 33.9078 -86.5894 47° Northeast 505 581 43,000  Level Atlanta Center
03:50PM 34.0064 -86.4619 47° Northeast 505 581 43,000  Level Atlanta Center
03:51PM 34.1025 -86.3367 47° Northeast 505 581 43,000  Level Atlanta Center
03:52PM 34.1967 -86.2139 47° Northeast 510 587 43,000  Level Atlanta Center
03:53PM 34.2928 -86.0881 47° Northeast 510 587 43,000  Level Atlanta Center
03:54PM 34.3886 -85.9594 48° Northeast 505 581 43,000  Level Atlanta Center
03:55PM 34.4867 -85.8331 47° Northeast 505 581 43,000  Level Atlanta Center
03:56PM 34.5803 -85.7114 47° Northeast 498 573 43,000  Level Atlanta Center
03:57PM 34.6736 -85.5819 49° Northeast 498 573 43,000  Level Atlanta Center
03:58PM 34.7692 -85.4572 47° Northeast 504 580 43,000  Level Atlanta Center
03:59PM 34.8644 -85.3247 49° Northeast 504 580 43,000  Level Atlanta Center
04:00PM 34.9597 -85.1994 47° Northeast 504 580 43,000  Level Atlanta Center
04:01PM 35.0547 -85.0689 48° Northeast 504 580 43,000  Level Atlanta Center
04:02PM 35.1494 -84.9406 48° Northeast 504 580 43,000  Level Atlanta Center
04:03PM 35.2444 -84.8119 48° Northeast 504 580 43,000  Level Atlanta Center
04:04PM 35.3369 -84.6803 49° Northeast 509 586 43,000  Level Atlanta Center
04:05PM 35.4333 -84.5511 47° Northeast 509 586 43,000  Level Atlanta Center
04:06PM 35.5258 -84.4189 49° Northeast 504 580 43,000  Level Atlanta Center
04:07PM 35.6200 -84.2917 48° Northeast 504 580 43,000  Level Atlanta Center
04:08PM 35.7142 -84.1642 48° Northeast 504 580 43,000  Level Atlanta Center
04:09PM 35.8081 -84.0311 49° Northeast 504 580 43,000  Level Atlanta Center
04:10PM 35.8997 -83.8978 50° Northeast 504 580 43,000  Level Atlanta Center
04:11PM 35.9661 -83.7361 63° Northeast 510 587 43,000  Level Atlanta Center
04:12PM 36.0283 -83.5767 64° Northeast 510 587 43,000  Level Atlanta Center
04:13PM 36.0839 -83.4297 65° Northeast 517 595 43,000  Level Atlanta Center
04:14PM 36.1456 -83.2700 64° Northeast 517 595 43,000  Level Atlanta Center
04:15PM 36.2092 -83.1047 64° Northeast 522 601 43,000  Level Atlanta Center
04:16PM 36.2703 -82.9392 65° Northeast 522 601 43,000  Level Atlanta Center
04:17PM 36.3333 -82.7758 64° Northeast 522 601 43,000  Level Atlanta Center
04:18PM 36.3942 -82.6097 65° Northeast 522 601 43,000  Level Atlanta Center
04:19PM 36.4567 -82.4461 65° Northeast 522 601 43,000  Level Atlanta Center
04:20PM 36.5192 -82.2822 65° Northeast 522 601 43,000  Level Atlanta Center
04:21PM 36.5792 -82.1153 66° East 528 608 43,000  Level Atlanta Center
04:22PM 36.6431 -81.9483 64° Northeast 528 608 43,000  Level Atlanta Center
04:23PM 36.7028 -81.7861 65° Northeast 523 602 43,000 -300 Level Atlanta Center
04:24PM 36.7622 -81.6239 65° Northeast 518 596 42,500 -600 Descending Atlanta Center
04:25PM 36.8233 -81.4431 67° East 504 580 41,800 -720 Descending Atlanta Center
04:26PM 36.8783 -81.2933 65° Northeast 509 586 41,100 -300 Descending Atlanta Center
04:28PM 36.9878 -80.9903 66° East 530 610 41,000 -60 Descending Washington Center
04:29PM 37.0564 -80.8075 65° Northeast 530 610 41,000  Level Washington Center
04:30PM 37.1236 -80.6481 62° Northeast 525 604 41,000  Level Washington Center
04:31PM 37.2011 -80.4967 57° Northeast 513 590 41,000  Level Washington Center
04:32PM 37.2781 -80.3450 57° Northeast 513 590 41,000  Level Washington Center
04:33PM 37.3547 -80.1956 57° Northeast 513 590 41,000  Level Washington Center
04:34PM 37.4267 -80.0586 56° Northeast 513 590 41,000  Level Washington Center
04:35PM 37.5053 -79.9089 56° Northeast 507 583 41,000  Level Washington Center
04:36PM 37.5747 -79.7164 65° Northeast 528 608 41,000  Level Washington Center
04:37PM 37.6194 -79.5614 70° East 528 608 41,000  Level Washington Center
04:38PM 37.6736 -79.3700 70° East 521 600 41,000  Level Washington Center
04:39PM 37.7203 -79.2147 69° East 521 600 41,000  Level Washington Center
04:40PM 37.7692 -79.0386 71° East 521 600 41,000  Level Washington Center
04:41PM 37.8244 -78.8492 70° East 521 600 41,000  Level Washington Center
04:42PM 37.8728 -78.6775 70° East 521 600 41,000  Level Washington Center
04:43PM 37.9211 -78.5058 70° East 521 600 41,000  Level Washington Center
04:44PM 37.9689 -78.3311 71° East 521 600 41,000 -420 Level Washington Center
04:45PM 38.0122 -78.1642 72° East 516 594 40,200 -900 Descending Washington Center
04:46PM 38.0822 -78.0133 59° Northeast 501 577 39,300 -600 Descending Washington Center
04:47PM 38.1558 -77.8653 58° Northeast 493 567 39,000 -180 Descending Washington Center
04:48PM 38.2317 -77.7144 57° Northeast 499 574 39,000  Level Washington Center
04:49PM 38.3072 -77.5631 58° Northeast 504 580 39,000 -300 Level Washington Center
04:50PM 38.3867 -77.4142 56° Northeast 504 580 38,500 -1,380 Descending Washington Center
04:51PM 38.4719 -77.2861 50° Northeast 509 586 36,300 -2,220 Descending Washington Center
04:52PM 38.5675 -77.1556 47° Northeast 509 586 34,200 -1,560 Descending Washington Center
04:53PM 38.6650 -77.0328 44° Northeast 498 573 33,200 -840 Descending Washington Center
04:54PM 38.7664 -76.9122 43° Northeast 488 562 32,600 -1,380 Descending Washington Center
05:00PM 39.3180 -76.2150 43° Northeast 457 526 24,000 -1,380 Descending FlightAware
05:00PM 39.3790 -76.1380 44° Northeast 454 522 23,800 -1,800 Descending FlightAware
05:02PM 39.4860 -76.0010 45° Northeast 456 525 20,800 -2,520 Descending FlightAware
05:02PM 39.5260 -75.9490 45° Northeast 445 512 19,600 -1,500 Descending FlightAware
05:03PM 39.5900 -75.8710 43° Northeast 438 504 18,900 -540 Descending FlightAware
05:03PM 39.6360 -75.8170 42° Northeast 438 504 18,900  Level FlightAware
05:04PM 39.6680 -75.7800 42° Northeast 438 504 18,900  Level FlightAware
05:04PM 39.7140 -75.7260 42° Northeast 438 504 18,900  Level FlightAware
05:05PM 39.7600 -75.6720 42° Northeast 438 504 18,900  Level FlightAware
05:06PM 39.8060 -75.6180 42° Northeast 438 504 18,900  Level FlightAware
05:06PM 39.8380 -75.5800 42° Northeast 438 504 18,900  Level FlightAware
05:06PM 39.8550 -75.5610 41° Northeast 438 504 18,900 -7,260 Level FlightAware
05:07PM 39.9833 -75.4333 41° Northeast 430 495 13,000 -3,720 Descending Philadelphia TRACON
05:08PM 40.0833 -75.3333 37° Northeast 419 482 13,000 -360 Level Philadelphia TRACON
05:09PM 40.1833 -75.2500 32° Northeast 402 463 12,300 -1,380 Descending Philadelphia TRACON
05:11PM 40.3500 -75.0833 37° Northeast 341 392 8,800 -1,680 Descending New York TRACON
05:12PM 40.4167 -74.9833 49° Northeast 314 361 7,100 -1,680 Descending New York TRACON
05:13PM 40.4667 -74.9167 45° Northeast 318 366 5,500 -1,500 Descending New York TRACON
05:14PM 40.5333 -74.8167 49° Northeast 320 368 4,100 -720 Descending New York TRACON
05:15PM 40.5833 -74.7333 52° Northeast 318 366 4,100  Level New York TRACON
05:16PM 40.6500 -74.6833 30° Northeast 313 360 4,100  Level New York TRACON
05:17PM 40.7333 -74.6167 31° Northeast 310 357 4,100  Level New York TRACON
05:18PM 40.8167 -74.6000 North 298 343 4,100  Level New York TRACON
05:19PM 40.9000 -74.5833 North 305 351 4,100 -360 Level New York TRACON
05:20PM 40.9833 -74.5500 17° North 324 373 3,400 -540 Descending New York TRACON
05:21PM 41.0333 -74.4667 51° Northeast 303 349 3,100 -180 Descending New York TRACON
05:22PM 41.0500 -74.3667 78° East 257 296 3,100  Level New York TRACON
05:23PM 41.0833 -74.2833 62° Northeast 256 295 3,100  Level New York TRACON
05:24PM 41.0833 -74.2000 90° East 234 269 3,100  Level New York TRACON
05:25PM 41.0667 -74.1333 108° East 205 236 3,100 -120 Level New York TRACON
05:26PM 41.0500 -74.0833 114° Southeast 189 217 2,900 -540 Descending New York TRACON
05:27PM 41.0167 -74.0500 143° Southeast 155 178 2,100 -660 Descending New York TRACON
05:28PM 40.9667 -74.0500 180° South 143 165 1,600 -300 Descending New York TRACON
05:29PM 40.9333 -74.0500 180° South 150 173 1,600 -360 Level New York TRACON
05:30PM 40.9000 -74.0500 180° South 120 138 900 -660 Descending New York TRACON
05:32PM 40.8500 -74.0500 164° South  Level FlightAware Approximate
05:39PM 40.8501 -74.0608 164° South  Level Estimated
05:40PM 40.8501 -74.0608 164° South  Level Estimated
05:41PM 40.8501 -74.0608 164° South  Level Estimated
05:42PM 40.8501 -74.0608 164° South  Level Estimated
05:43PM 40.8501 -74.0608 164° South  Level Estimated
05:44PM 40.8501 -74.0608 164° South  Level Estimated
05:45PM 40.8501 -74.0608 164° South  Level Estimated
05:46PM 40.8501 -74.0608 164° South  Level Estimated